Terminal Aerodrome Forecast
Issued by NWS

Home | Current Version | Previous Version | Text Only | Print | Product List | Glossary On
Versions: 1 2 3 4 5 6 7 8 9 10 11 12 13 14 15 16 17 18 19 20 21 22 23 24 25 26
333
FTUS46 KMTR 191433 AAA
TAFSFO
TAF AMD
KSFO 191433Z 1915/2018 VRB03KT P6SM FEW250
     FM192000 33004KT P6SM BKN250
     FM200100 28005KT P6SM BKN180
     FM200800 28003KT P6SM OVC120
     FM201300 12004KT P6SM BKN050 OVC100=

USA.gov is the U.S. government's official web portal to all federal, state and local government web resources and services.